sensor_id;sensor_type;location;lat;lon;timestamp;pressure;altitude;pressure_sealevel;temperature;humidity
38054;BME280;23859;50.672;7.164;2023-04-03T00:01:39;58795.06;;;6.69;79.87
38054;BME280;23859;50.672;7.164;2023-04-03T00:04:05;58799.94;;;6.66;76.37
38054;BME280;23859;50.672;7.164;2023-04-03T00:06:32;58804.53;;;6.68;77.97
38054;BME280;23859;50.672;7.164;2023-04-03T00:08:58;58792.44;;;6.61;77.67
38054;BME280;23859;50.672;7.164;2023-04-03T00:11:24;58808.94;;;6.73;77.12
38054;BME280;23859;50.672;7.164;2023-04-03T00:13:51;58796.84;;;6.66;77.45
38054;BME280;23859;50.672;7.164;2023-04-03T00:16:17;58802.25;;;6.71;77.91
38054;BME280;23859;50.672;7.164;2023-04-03T00:18:43;58813.00;;;6.82;76.79
38054;BME280;23859;50.672;7.164;2023-04-03T00:21:12;58813.50;;;6.83;74.67
38054;BME280;23859;50.672;7.164;2023-04-03T00:23:39;58811.06;;;6.72;77.55
38054;BME280;23859;50.672;7.164;2023-04-03T00:26:05;58810.91;;;6.75;76.98
38054;BME280;23859;50.672;7.164;2023-04-03T00:28:31;58784.63;;;6.54;77.39
38054;BME280;23859;50.672;7.164;2023-04-03T00:30:57;58797.03;;;6.63;75.91
38054;BME280;23859;50.672;7.164;2023-04-03T00:33:23;58789.34;;;6.53;78.41
38054;BME280;23859;50.672;7.164;2023-04-03T00:35:50;58803.22;;;6.64;76.96
38054;BME280;23859;50.672;7.164;2023-04-03T00:38:17;58796.03;;;6.62;78.21
38054;BME280;23859;50.672;7.164;2023-04-03T00:40:45;58790.81;;;6.55;78.12
38054;BME280;23859;50.672;7.164;2023-04-03T00:43:23;58788.06;;;6.57;77.33
38054;BME280;23859;50.672;7.164;2023-04-03T00:45:55;58793.59;;;6.60;79.61
38054;BME280;23859;50.672;7.164;2023-04-03T00:48:38;58776.94;;;6.43;80.03
38054;BME280;23859;50.672;7.164;2023-04-03T00:51:09;58761.28;;;6.35;79.12
38054;BME280;23859;50.672;7.164;2023-04-03T00:54:03;58771.06;;;6.37;80.34
38054;BME280;23859;50.672;7.164;2023-04-03T00:56:30;58759.50;;;6.23;80.28
38054;BME280;23859;50.672;7.164;2023-04-03T00:59:06;58759.00;;;6.30;81.11
38054;BME280;23859;50.672;7.164;2023-04-03T01:01:34;58758.84;;;6.25;78.68
38054;BME280;23859;50.672;7.164;2023-04-03T01:04:04;58753.94;;;6.20;77.78
38054;BME280;23859;50.672;7.164;2023-04-03T01:06:34;58757.69;;;6.26;80.77
38054;BME280;23859;50.672;7.164;2023-04-03T01:09:01;58752.47;;;6.18;77.48
38054;BME280;23859;50.672;7.164;2023-04-03T01:11:28;58755.75;;;6.24;80.03
38054;BME280;23859;50.672;7.164;2023-04-03T01:13:54;58757.84;;;6.24;79.83
38054;BME280;23859;50.672;7.164;2023-04-03T01:16:20;58765.53;;;6.34;78.40
38054;BME280;23859;50.672;7.164;2023-04-03T01:18:46;58762.91;;;6.26;80.16
38054;BME280;23859;50.672;7.164;2023-04-03T01:26:33;58763.56;;;6.32;79.51
38054;BME280;23859;50.672;7.164;2023-04-03T01:29:00;58757.38;;;6.23;79.09
38054;BME280;23859;50.672;7.164;2023-04-03T01:31:40;58775.97;;;6.42;78.69
38054;BME280;23859;50.672;7.164;2023-04-03T01:34:06;58765.19;;;6.31;81.27
38054;BME280;23859;50.672;7.164;2023-04-03T01:36:32;58768.94;;;6.30;79.90
38054;BME280;23859;50.672;7.164;2023-04-03T01:38:59;58753.28;;;6.22;80.01
38054;BME280;23859;50.672;7.164;2023-04-03T01:41:26;58754.28;;;6.23;80.21
38054;BME280;23859;50.672;7.164;2023-04-03T01:43:52;58742.03;;;6.10;81.75
38054;BME280;23859;50.672;7.164;2023-04-03T01:46:19;58762.25;;;6.28;79.54
38054;BME280;23859;50.672;7.164;2023-04-03T01:48:46;58747.25;;;6.18;81.31
38054;BME280;23859;50.672;7.164;2023-04-03T01:51:12;58749.22;;;6.12;81.04
38054;BME280;23859;50.672;7.164;2023-04-03T01:53:38;58739.25;;;6.13;80.60
38054;BME280;23859;50.672;7.164;2023-04-03T01:56:05;58753.94;;;6.20;80.51
38054;BME280;23859;50.672;7.164;2023-04-03T01:58:31;58722.31;;;5.85;80.40
38054;BME280;23859;50.672;7.164;2023-04-03T02:00:57;58758.84;;;6.25;80.49
38054;BME280;23859;50.672;7.164;2023-04-03T02:03:23;58744.47;;;6.21;80.42
38054;BME280;23859;50.672;7.164;2023-04-03T02:05:50;58738.44;;;6.01;83.47
38054;BME280;23859;50.672;7.164;2023-04-03T02:08:16;58727.53;;;6.01;84.01
38054;BME280;23859;50.672;7.164;2023-04-03T02:10:48;58729.78;;;5.98;83.17
38054;BME280;23859;50.672;7.164;2023-04-03T02:13:14;58733.38;;;5.99;83.69
38054;BME280;23859;50.672;7.164;2023-04-03T02:15:40;58646.47;;;5.24;85.29
38054;BME280;23859;50.672;7.164;2023-04-03T02:18:07;58727.19;;;5.90;85.31
38054;BME280;23859;50.672;7.164;2023-04-03T02:20:34;58726.38;;;5.87;86.47
38054;BME280;23859;50.672;7.164;2023-04-03T02:23:00;58721.16;;;5.87;86.36
38054;BME280;23859;50.672;7.164;2023-04-03T02:25:27;58717.72;;;5.83;85.00
38054;BME280;23859;50.672;7.164;2023-04-03T02:27:53;58716.91;;;5.95;83.25
38054;BME280;23859;50.672;7.164;2023-04-03T02:30:19;58721.81;;;5.93;84.96
38054;BME280;23859;50.672;7.164;2023-04-03T02:32:45;58739.59;;;6.16;82.42
38054;BME280;23859;50.672;7.164;2023-04-03T02:35:12;58733.22;;;6.09;82.56
38054;BME280;23859;50.672;7.164;2023-04-03T02:37:38;58732.91;;;5.98;83.40
38054;BME280;23859;50.672;7.164;2023-04-03T02:40:05;58718.69;;;5.92;83.96
38054;BME280;23859;50.672;7.164;2023-04-03T02:42:31;58718.03;;;5.86;85.12
38054;BME280;23859;50.672;7.164;2023-04-03T02:44:57;58724.25;;;5.87;84.70
38054;BME280;23859;50.672;7.164;2023-04-03T02:47:24;58745.13;;;6.11;82.02
38054;BME280;23859;50.672;7.164;2023-04-03T02:49:50;58730.13;;;5.93;82.37
38054;BME280;23859;50.672;7.164;2023-04-03T02:52:16;58724.09;;;5.97;83.10
38054;BME280;23859;50.672;7.164;2023-04-03T02:54:42;58723.25;;;5.86;82.32
38054;BME280;23859;50.672;7.164;2023-04-03T02:57:08;58730.13;;;5.93;81.37
38054;BME280;23859;50.672;7.164;2023-04-03T02:59:37;58708.25;;;5.76;82.57
38054;BME280;23859;50.672;7.164;2023-04-03T03:02:07;58714.81;;;5.80;82.05
38054;BME280;23859;50.672;7.164;2023-04-03T03:04:33;58702.88;;;5.71;82.12
38054;BME280;23859;50.672;7.164;2023-04-03T03:07:00;58704.66;;;5.75;82.79
38054;BME280;23859;50.672;7.164;2023-04-03T03:09:26;58692.94;;;5.63;83.25
38054;BME280;23859;50.672;7.164;2023-04-03T03:11:52;58680.72;;;5.51;84.75
38054;BME280;23859;50.672;7.164;2023-04-03T03:14:18;58692.28;;;5.57;84.05
38054;BME280;23859;50.672;7.164;2023-04-03T03:16:44;58683.63;;;5.54;84.87
38054;BME280;23859;50.672;7.164;2023-04-03T03:19:11;58688.22;;;5.56;84.58
38054;BME280;23859;50.672;7.164;2023-04-03T03:21:37;58686.25;;;5.54;84.98
38054;BME280;23859;50.672;7.164;2023-04-03T03:24:03;58704.97;;;5.70;83.44
38054;BME280;23859;50.672;7.164;2023-04-03T03:26:29;58672.56;;;5.40;86.96
38054;BME280;23859;50.672;7.164;2023-04-03T03:28:55;58658.19;;;5.20;86.76
38054;BME280;23859;50.672;7.164;2023-04-03T03:31:21;58658.38;;;5.26;86.93
38054;BME280;23859;50.672;7.164;2023-04-03T03:33:47;58654.63;;;5.27;87.18
38054;BME280;23859;50.672;7.164;2023-04-03T03:36:13;58658.34;;;5.18;87.02
38054;BME280;23859;50.672;7.164;2023-04-03T03:38:40;58657.88;;;5.25;86.84
38054;BME280;23859;50.672;7.164;2023-04-03T03:41:06;58655.09;;;5.27;86.62
38054;BME280;23859;50.672;7.164;2023-04-03T03:43:32;58656.72;;;5.19;86.85
38054;BME280;23859;50.672;7.164;2023-04-03T03:45:58;58641.41;;;5.06;86.79
38054;BME280;23859;50.672;7.164;2023-04-03T03:48:24;58624.81;;;4.89;88.36
38054;BME280;23859;50.672;7.164;2023-04-03T03:50:50;58625.63;;;4.84;90.80
38054;BME280;23859;50.672;7.164;2023-04-03T03:53:16;58627.72;;;4.92;89.79
38054;BME280;23859;50.672;7.164;2023-04-03T03:55:42;58625.13;;;4.92;90.06
38054;BME280;23859;50.672;7.164;2023-04-03T03:58:08;58611.44;;;4.86;89.79
38054;BME280;23859;50.672;7.164;2023-04-03T04:00:35;58602.47;;;4.71;90.55
38054;BME280;23859;50.672;7.164;2023-04-03T04:03:01;58604.94;;;4.66;89.66
38054;BME280;23859;50.672;7.164;2023-04-03T04:05:27;58586.22;;;4.58;90.69
38054;BME280;23859;50.672;7.164;2023-04-03T04:07:53;58578.88;;;4.42;91.05
38054;BME280;23859;50.672;7.164;2023-04-03T04:10:19;58585.22;;;4.49;90.73
38054;BME280;23859;50.672;7.164;2023-04-03T04:12:46;58514.75;;;3.72;89.72
38054;BME280;23859;50.672;7.164;2023-04-03T04:15:12;58569.44;;;4.35;92.17
38054;BME280;23859;50.672;7.164;2023-04-03T04:17:38;58550.38;;;4.16;91.67
38054;BME280;23859;50.672;7.164;2023-04-03T04:20:04;58537.53;;;4.05;91.04
38054;BME280;23859;50.672;7.164;2023-04-03T04:22:31;58536.69;;;4.02;91.51
38054;BME280;23859;50.672;7.164;2023-04-03T04:24:57;58529.53;;;3.92;92.53
38054;BME280;23859;50.672;7.164;2023-04-03T04:27:23;58467.25;;;3.42;91.42
38054;BME280;23859;50.672;7.164;2023-04-03T04:29:49;58549.22;;;4.09;90.80
38054;BME280;23859;50.672;7.164;2023-04-03T04:32:15;58530.69;;;3.91;92.04
38054;BME280;23859;50.672;7.164;2023-04-03T04:34:41;58514.75;;;3.88;91.31
38054;BME280;23859;50.672;7.164;2023-04-03T04:37:07;58520.13;;;3.85;92.95
38054;BME280;23859;50.672;7.164;2023-04-03T04:39:34;58513.44;;;3.84;92.33
38054;BME280;23859;50.672;7.164;2023-04-03T04:42:00;58519.63;;;3.85;92.91
38054;BME280;23859;50.672;7.164;2023-04-03T04:44:26;58519.94;;;3.80;93.17
38054;BME280;23859;50.672;7.164;2023-04-03T04:46:53;58514.25;;;3.71;93.36
38054;BME280;23859;50.672;7.164;2023-04-03T04:49:19;58500.41;;;3.68;94.05
38054;BME280;23859;50.672;7.164;2023-04-03T04:51:45;58431.47;;;2.92;93.21
38054;BME280;23859;50.672;7.164;2023-04-03T04:54:11;58493.59;;;3.61;93.93
38054;BME280;23859;50.672;7.164;2023-04-03T04:56:37;58496.19;;;3.61;94.18
38054;BME280;23859;50.672;7.164;2023-04-03T04:59:03;58512.94;;;3.75;92.89
38054;BME280;23859;50.672;7.164;2023-04-03T05:01:29;58510.19;;;3.70;92.06
38054;BME280;23859;50.672;7.164;2023-04-03T05:03:55;58520.25;;;3.75;92.50
38054;BME280;23859;50.672;7.164;2023-04-03T05:06:21;58508.41;;;3.73;93.48
38054;BME280;23859;50.672;7.164;2023-04-03T05:08:47;58511.81;;;3.77;93.51
38054;BME280;23859;50.672;7.164;2023-04-03T05:11:13;58493.13;;;3.68;93.27
38054;BME280;23859;50.672;7.164;2023-04-03T05:13:39;58499.94;;;3.67;93.58
38054;BME280;23859;50.672;7.164;2023-04-03T05:16:05;58494.09;;;3.69;92.68
38054;BME280;23859;50.672;7.164;2023-04-03T05:18:31;58506.28;;;3.74;92.02
38054;BME280;23859;50.672;7.164;2023-04-03T05:20:57;58516.34;;;3.79;91.87
38054;BME280;23859;50.672;7.164;2023-04-03T05:23:24;58519.63;;;3.85;90.99
38054;BME280;23859;50.672;7.164;2023-04-03T05:25:50;58528.09;;;3.91;90.57
38054;BME280;23859;50.672;7.164;2023-04-03T05:28:16;58520.91;;;3.81;91.29
38054;BME280;23859;50.672;7.164;2023-04-03T05:30:42;58523.84;;;3.84;91.94
38054;BME280;23859;50.672;7.164;2023-04-03T05:33:08;58514.41;;;3.85;90.83
38054;BME280;23859;50.672;7.164;2023-04-03T05:35:36;58532.97;;;4.03;88.96
38054;BME280;23859;50.672;7.164;2023-04-03T05:38:05;58546.78;;;4.07;89.50
38054;BME280;23859;50.672;7.164;2023-04-03T05:40:31;58539.31;;;4.10;90.05
38054;BME280;23859;50.672;7.164;2023-04-03T05:42:57;58572.19;;;4.41;87.08
38054;BME280;23859;50.672;7.164;2023-04-03T05:45:23;58558.84;;;4.30;88.61
38054;BME280;23859;50.672;7.164;2023-04-03T05:47:49;58588.31;;;4.49;86.43
38054;BME280;23859;50.672;7.164;2023-04-03T05:50:15;58507.25;;;3.75;89.76
38054;BME280;23859;50.672;7.164;2023-04-03T05:52:45;58582.13;;;4.48;87.80
38054;BME280;23859;50.672;7.164;2023-04-03T05:55:13;58583.28;;;4.55;86.85
38054;BME280;23859;50.672;7.164;2023-04-03T05:57:39;58585.38;;;4.54;87.16
38054;BME280;23859;50.672;7.164;2023-04-03T06:00:07;58598.06;;;4.59;87.79
38054;BME280;23859;50.672;7.164;2023-04-03T06:02:35;58613.06;;;4.77;85.04
38054;BME280;23859;50.672;7.164;2023-04-03T06:05:01;58648.59;;;5.16;79.69
38054;BME280;23859;50.672;7.164;2023-04-03T06:07:28;58679.56;;;5.44;79.92
38054;BME280;23859;50.672;7.164;2023-04-03T06:09:55;58710.53;;;5.73;76.80
38054;BME280;23859;50.672;7.164;2023-04-03T06:12:22;58740.91;;;6.12;75.65
38054;BME280;23859;50.672;7.164;2023-04-03T06:14:49;58781.34;;;6.56;74.41
38054;BME280;23859;50.672;7.164;2023-04-03T06:17:17;58810.72;;;6.77;73.45
38054;BME280;23859;50.672;7.164;2023-04-03T06:19:44;58816.44;;;6.86;72.31
38054;BME280;23859;50.672;7.164;2023-04-03T06:22:10;58790.50;;;6.60;70.43
38054;BME280;23859;50.672;7.164;2023-04-03T06:24:37;58702.22;;;5.65;73.19
38054;BME280;23859;50.672;7.164;2023-04-03T06:27:03;58821.66;;;6.86;72.68
38054;BME280;23859;50.672;7.164;2023-04-03T06:29:30;58924.75;;;7.95;67.09
38054;BME280;23859;50.672;7.164;2023-04-03T06:31:56;58952.91;;;8.29;64.25
38054;BME280;23859;50.672;7.164;2023-04-03T06:34:22;59002.47;;;8.71;60.77
38054;BME280;23859;50.672;7.164;2023-04-03T06:36:49;58968.44;;;8.40;60.93
38054;BME280;23859;50.672;7.164;2023-04-03T06:39:19;58968.75;;;8.35;61.94
38054;BME280;23859;50.672;7.164;2023-04-03T06:41:48;58943.06;;;8.11;64.18
38054;BME280;23859;50.672;7.164;2023-04-03T06:44:15;58910.69;;;7.87;65.57
38054;BME280;23859;50.672;7.164;2023-04-03T06:46:42;58912.84;;;7.86;65.48
38054;BME280;23859;50.672;7.164;2023-04-03T06:49:09;58941.59;;;8.10;65.33
38054;BME280;23859;50.672;7.164;2023-04-03T06:51:35;58923.78;;;7.94;63.03
38054;BME280;23859;50.672;7.164;2023-04-03T06:54:03;59015.72;;;8.85;58.84
38054;BME280;23859;50.672;7.164;2023-04-03T06:56:29;59033.38;;;9.03;57.52
38054;BME280;23859;50.672;7.164;2023-04-03T06:58:56;59157.88;;;10.26;55.08
38054;BME280;23859;50.672;7.164;2023-04-03T07:01:27;59235.25;;;11.09;53.43
38054;BME280;23859;50.672;7.164;2023-04-03T07:03:56;59172.31;;;10.46;54.16
38054;BME280;23859;50.672;7.164;2023-04-03T07:06:22;59232.28;;;11.06;50.49
38054;BME280;23859;50.672;7.164;2023-04-03T07:08:53;59255.59;;;11.27;50.24
38054;BME280;23859;50.672;7.164;2023-04-03T07:11:19;59213.94;;;10.90;50.19
38054;BME280;23859;50.672;7.164;2023-04-03T07:13:46;59253.47;;;11.27;49.99
38054;BME280;23859;50.672;7.164;2023-04-03T07:16:12;59217.84;;;10.94;50.85
38054;BME280;23859;50.672;7.164;2023-04-03T07:18:38;59065.63;;;9.38;53.54
38054;BME280;23859;50.672;7.164;2023-04-03T07:21:05;59113.28;;;9.86;52.16
38054;BME280;23859;50.672;7.164;2023-04-03T07:23:32;59109.84;;;9.83;52.17
38054;BME280;23859;50.672;7.164;2023-04-03T07:25:58;59181.81;;;10.53;53.30
38054;BME280;23859;50.672;7.164;2023-04-03T07:28:24;59267.72;;;11.50;49.85
38054;BME280;23859;50.672;7.164;2023-04-03T07:30:53;59270.03;;;11.47;51.47
38054;BME280;23859;50.672;7.164;2023-04-03T07:33:20;59213.59;;;10.87;50.25
38054;BME280;23859;50.672;7.164;2023-04-03T07:35:47;59194.91;;;10.68;50.27
38054;BME280;23859;50.672;7.164;2023-04-03T07:38:13;59130.03;;;10.03;56.00
38054;BME280;23859;50.672;7.164;2023-04-03T07:40:39;59095.91;;;9.71;57.35
38054;BME280;23859;50.672;7.164;2023-04-03T07:43:06;59089.69;;;9.62;54.72
38054;BME280;23859;50.672;7.164;2023-04-03T07:45:34;59120.31;;;9.91;54.33
38054;BME280;23859;50.672;7.164;2023-04-03T07:48:00;59149.69;;;10.23;54.74
38054;BME280;23859;50.672;7.164;2023-04-03T07:50:26;59139.19;;;10.15;55.02
38054;BME280;23859;50.672;7.164;2023-04-03T07:52:53;59210.47;;;10.87;50.28
38054;BME280;23859;50.672;7.164;2023-04-03T07:55:22;59202.78;;;10.76;53.07
38054;BME280;23859;50.672;7.164;2023-04-03T07:57:48;59227.88;;;11.02;53.74
38054;BME280;23859;50.672;7.164;2023-04-03T08:00:15;59182.63;;;10.56;53.60
38054;BME280;23859;50.672;7.164;2023-04-03T08:02:43;59139.00;;;10.17;56.35
38054;BME280;23859;50.672;7.164;2023-04-03T08:05:10;59053.03;;;9.23;57.25
38054;BME280;23859;50.672;7.164;2023-04-03T08:07:37;59098.06;;;9.71;60.59
38054;BME280;23859;50.672;7.164;2023-04-03T08:10:04;59127.06;;;10.00;56.96
38054;BME280;23859;50.672;7.164;2023-04-03T08:12:30;59142.28;;;10.23;55.55
38054;BME280;23859;50.672;7.164;2023-04-03T08:14:59;59134.25;;;10.10;55.49
38054;BME280;23859;50.672;7.164;2023-04-03T08:17:25;59045.31;;;9.28;55.22
38054;BME280;23859;50.672;7.164;2023-04-03T08:19:52;59150.00;;;10.26;56.78
38054;BME280;23859;50.672;7.164;2023-04-03T08:22:18;59221.00;;;10.95;54.59
38054;BME280;23859;50.672;7.164;2023-04-03T08:24:44;59324.88;;;11.99;50.52
38054;BME280;23859;50.672;7.164;2023-04-03T08:27:10;59278.72;;;11.58;50.42
38054;BME280;23859;50.672;7.164;2023-04-03T08:29:36;59107.06;;;9.85;49.31
38054;BME280;23859;50.672;7.164;2023-04-03T08:32:04;59181.28;;;10.60;49.74
38054;BME280;23859;50.672;7.164;2023-04-03T08:34:31;59232.16;;;11.01;48.04
38054;BME280;23859;50.672;7.164;2023-04-03T08:37:00;59293.66;;;11.71;49.02
38054;BME280;23859;50.672;7.164;2023-04-03T08:39:27;59312.06;;;11.87;45.01
38054;BME280;23859;50.672;7.164;2023-04-03T08:41:57;59226.38;;;11.00;47.55
38054;BME280;23859;50.672;7.164;2023-04-03T08:47:13;59174.91;;;10.54;49.04
38054;BME280;23859;50.672;7.164;2023-04-03T08:49:49;59130.69;;;10.01;50.29
38054;BME280;23859;50.672;7.164;2023-04-03T08:52:38;59202.44;;;10.81;50.27
38054;BME280;23859;50.672;7.164;2023-04-03T08:55:13;59298.63;;;11.68;48.09
38054;BME280;23859;50.672;7.164;2023-04-03T08:57:43;59389.41;;;12.64;46.98
38054;BME280;23859;50.672;7.164;2023-04-03T09:00:25;59362.13;;;12.40;48.21
38054;BME280;23859;50.672;7.164;2023-04-03T09:02:56;59519.16;;;13.95;45.05
38054;BME280;23859;50.672;7.164;2023-04-03T09:05:48;59515.19;;;13.91;43.56
38054;BME280;23859;50.672;7.164;2023-04-03T09:08:33;59613.13;;;14.95;41.27
38054;BME280;23859;50.672;7.164;2023-04-03T09:11:11;59627.13;;;15.06;39.95
38054;BME280;23859;50.672;7.164;2023-04-03T09:13:52;59493.13;;;13.74;43.70
38054;BME280;23859;50.672;7.164;2023-04-03T09:16:39;59652.88;;;15.32;40.38
38054;BME280;23859;50.672;7.164;2023-04-03T09:21:48;59534.47;;;14.10;40.15
38054;BME280;23859;50.672;7.164;2023-04-03T09:24:15;59382.03;;;12.57;43.36
38054;BME280;23859;50.672;7.164;2023-04-03T09:27:04;59427.06;;;13.08;42.09
38054;BME280;23859;50.672;7.164;2023-04-03T09:29:34;59454.16;;;13.35;42.38
38054;BME280;23859;50.672;7.164;2023-04-03T09:32:12;59402.72;;;12.78;42.40
38054;BME280;23859;50.672;7.164;2023-04-03T09:34:44;59409.28;;;12.90;42.81
38054;BME280;23859;50.672;7.164;2023-04-03T09:37:33;59483.94;;;13.62;41.79
38054;BME280;23859;50.672;7.164;2023-04-03T09:39:59;59442.84;;;13.24;42.05
38054;BME280;23859;50.672;7.164;2023-04-03T09:42:25;59456.63;;;13.37;40.28
38054;BME280;23859;50.672;7.164;2023-04-03T09:45:00;59492.47;;;13.76;40.51
38054;BME280;23859;50.672;7.164;2023-04-03T09:47:32;59402.38;;;12.83;42.54
38054;BME280;23859;50.672;7.164;2023-04-03T09:52:41;59298.41;;;11.78;40.66
38054;BME280;23859;50.672;7.164;2023-04-03T09:55:15;59311.75;;;11.84;40.23
38054;BME280;23859;50.672;7.164;2023-04-03T09:57:41;59420.97;;;12.96;39.71
38054;BME280;23859;50.672;7.164;2023-04-03T10:00:22;59489.19;;;13.70;38.76
38054;BME280;23859;50.672;7.164;2023-04-03T10:02:54;59454.00;;;13.29;37.79
38054;BME280;23859;50.672;7.164;2023-04-03T10:05:40;59526.38;;;14.05;37.37
38054;BME280;23859;50.672;7.164;2023-04-03T10:10:47;59314.19;;;11.94;38.72
38054;BME280;23859;50.672;7.164;2023-04-03T10:13:16;59221.34;;;10.90;43.13
38054;BME280;23859;50.672;7.164;2023-04-03T10:21:03;59545.63;;;14.24;34.68
38054;BME280;23859;50.672;7.164;2023-04-03T10:23:45;59554.03;;;14.33;33.95
38054;BME280;23859;50.672;7.164;2023-04-03T10:26:29;59441.50;;;13.20;34.54
38054;BME280;23859;50.672;7.164;2023-04-03T10:29:14;59282.53;;;11.57;36.53
38054;BME280;23859;50.672;7.164;2023-04-03T10:34:25;59263.97;;;11.35;37.73
38054;BME280;23859;50.672;7.164;2023-04-03T10:39:41;59340.78;;;12.21;35.20
38054;BME280;23859;50.672;7.164;2023-04-03T10:42:46;59428.38;;;13.04;33.46
38054;BME280;23859;50.672;7.164;2023-04-03T10:45:43;59523.38;;;14.10;33.25
38054;BME280;23859;50.672;7.164;2023-04-03T10:51:01;59578.56;;;14.60;31.31
38054;BME280;23859;50.672;7.164;2023-04-03T10:53:52;59651.53;;;15.28;31.19
38054;BME280;23859;50.672;7.164;2023-04-03T10:56:40;59664.66;;;15.52;32.28
38054;BME280;23859;50.672;7.164;2023-04-03T10:59:47;59716.31;;;15.93;31.20
38054;BME280;23859;50.672;7.164;2023-04-03T11:02:24;59621.03;;;15.03;31.46
38054;BME280;23859;50.672;7.164;2023-04-03T11:07:43;59746.16;;;16.28;28.71
38054;BME280;23859;50.672;7.164;2023-04-03T11:10:17;59503.19;;;13.82;32.27
38054;BME280;23859;50.672;7.164;2023-04-03T11:15:35;59556.66;;;14.41;32.22
38054;BME280;23859;50.672;7.164;2023-04-03T11:18:06;59631.91;;;15.14;31.82
38054;BME280;23859;50.672;7.164;2023-04-03T11:20:35;59718.91;;;16.01;30.96
38054;BME280;23859;50.672;7.164;2023-04-03T11:23:11;59881.19;;;17.58;28.73
38054;BME280;23859;50.672;7.164;2023-04-03T11:25:41;59886.75;;;17.69;26.66
38054;BME280;23859;50.672;7.164;2023-04-03T11:28:13;59789.00;;;16.74;28.53
38054;BME280;23859;50.672;7.164;2023-04-03T11:36:22;59769.25;;;16.46;29.88
38054;BME280;23859;50.672;7.164;2023-04-03T11:38:53;59713.53;;;15.88;29.66
38054;BME280;23859;50.672;7.164;2023-04-03T11:41:26;59786.22;;;16.68;30.44
38054;BME280;23859;50.672;7.164;2023-04-03T11:43:57;59937.13;;;18.22;26.75
38054;BME280;23859;50.672;7.164;2023-04-03T11:46:57;59919.47;;;18.02;26.90
38054;BME280;23859;50.672;7.164;2023-04-03T12:08:43;59648.72;;;15.31;29.38
38054;BME280;23859;50.672;7.164;2023-04-03T12:11:13;59593.56;;;14.72;31.28
38054;BME280;23859;50.672;7.164;2023-04-03T12:29:23;59723.00;;;16.10;28.73
38054;BME280;23859;50.672;7.164;2023-04-03T12:35:10;59997.81;;;18.80;26.66
38054;BME280;23859;50.672;7.164;2023-04-03T12:44:06;60058.53;;;19.38;24.63
38054;BME280;23859;50.672;7.164;2023-04-03T12:46:49;59903.59;;;17.86;26.34
38054;BME280;23859;50.672;7.164;2023-04-03T12:49:35;59843.16;;;17.26;26.88
38054;BME280;23859;50.672;7.164;2023-04-03T12:52:06;59930.50;;;18.18;25.89
38054;BME280;23859;50.672;7.164;2023-04-03T12:54:42;59901.56;;;17.92;25.83
38054;BME280;23859;50.672;7.164;2023-04-03T12:57:20;59874.50;;;17.62;29.03
38054;BME280;23859;50.672;7.164;2023-04-03T12:59:47;59931.00;;;18.19;27.32
38054;BME280;23859;50.672;7.164;2023-04-03T13:02:32;59885.41;;;17.73;27.22
38054;BME280;23859;50.672;7.164;2023-04-03T13:05:06;59778.97;;;16.59;27.73
38054;BME280;23859;50.672;7.164;2023-04-03T13:07:35;59699.94;;;15.85;28.41
38054;BME280;23859;50.672;7.164;2023-04-03T13:10:17;59623.19;;;15.02;29.72
38054;BME280;23859;50.672;7.164;2023-04-03T13:12:53;59579.72;;;14.59;29.53
38054;BME280;23859;50.672;7.164;2023-04-03T13:15:23;59620.81;;;15.13;29.80
38054;BME280;23859;50.672;7.164;2023-04-03T13:17:51;59778.63;;;16.64;27.79
38054;BME280;23859;50.672;7.164;2023-04-03T13:20:31;59743.97;;;16.29;29.32
38054;BME280;23859;50.672;7.164;2023-04-03T13:23:03;59722.88;;;16.05;31.04
38054;BME280;23859;50.672;7.164;2023-04-03T13:25:33;59528.19;;;14.09;30.73
38054;BME280;23859;50.672;7.164;2023-04-03T13:28:02;59561.59;;;14.46;31.50
38054;BME280;23859;50.672;7.164;2023-04-03T13:32:59;59470.75;;;13.54;30.97
38054;BME280;23859;50.672;7.164;2023-04-03T13:35:35;59445.78;;;13.27;31.58
38054;BME280;23859;50.672;7.164;2023-04-03T13:38:21;59425.91;;;13.01;33.59
38054;BME280;23859;50.672;7.164;2023-04-03T13:40:53;59454.00;;;13.37;35.58
38054;BME280;23859;50.672;7.164;2023-04-03T13:43:25;59533.31;;;14.12;31.49
38054;BME280;23859;50.672;7.164;2023-04-03T13:46:05;59669.97;;;15.52;29.88
38054;BME280;23859;50.672;7.164;2023-04-03T13:48:49;59720.75;;;15.98;30.52
38054;BME280;23859;50.672;7.164;2023-04-03T13:56:34;59903.97;;;17.81;26.22
38054;BME280;23859;50.672;7.164;2023-04-03T13:59:22;59926.25;;;18.03;26.39
38054;BME280;23859;50.672;7.164;2023-04-03T14:07:12;59848.13;;;17.31;27.71
38054;BME280;23859;50.672;7.164;2023-04-03T14:09:39;60070.75;;;19.53;25.76
38054;BME280;23859;50.672;7.164;2023-04-03T14:12:08;60043.78;;;19.29;25.55
38054;BME280;23859;50.672;7.164;2023-04-03T14:14:37;60058.34;;;19.41;25.84
38054;BME280;23859;50.672;7.164;2023-04-03T14:17:15;60052.53;;;19.40;26.25
38054;BME280;23859;50.672;7.164;2023-04-03T14:19:42;60063.31;;;19.46;26.44
38054;BME280;23859;50.672;7.164;2023-04-03T14:24:44;59936.97;;;18.17;27.01
38054;BME280;23859;50.672;7.164;2023-04-03T14:27:18;60038.88;;;19.16;26.75
38054;BME280;23859;50.672;7.164;2023-04-03T14:29:45;60040.00;;;19.23;25.85
38054;BME280;23859;50.672;7.164;2023-04-03T14:32:14;59934.69;;;18.12;27.14
38054;BME280;23859;50.672;7.164;2023-04-03T14:34:40;59733.09;;;16.18;31.97
38054;BME280;23859;50.672;7.164;2023-04-03T14:37:11;59794.66;;;16.77;28.93
38054;BME280;23859;50.672;7.164;2023-04-03T14:39:38;59920.56;;;18.08;27.99
38054;BME280;23859;50.672;7.164;2023-04-03T14:42:04;59916.78;;;18.02;27.72
38054;BME280;23859;50.672;7.164;2023-04-03T14:44:30;59682.34;;;15.64;32.64
38054;BME280;23859;50.672;7.164;2023-04-03T14:46:57;59557.31;;;14.39;33.59
38054;BME280;23859;50.672;7.164;2023-04-03T14:49:26;59512.88;;;13.94;35.34
38054;BME280;23859;50.672;7.164;2023-04-03T14:51:53;59459.09;;;13.40;34.84
38054;BME280;23859;50.672;7.164;2023-04-03T14:54:22;59411.94;;;12.90;37.00
38054;BME280;23859;50.672;7.164;2023-04-03T14:56:51;59420.44;;;13.04;36.88
38054;BME280;23859;50.672;7.164;2023-04-03T14:59:17;59384.63;;;12.65;36.64